Time;durP1;ratioP1;P1;durP2;ratioP2;P2;SDS_P1;SDS_P2;PMS_P1;PMS_P2;Temp;Humidity;BMP_temperature;BMP_pressure;BME280_temperature;BME280_humidity;BME280_pressure;Samples;Min_cycle;Max_cycle;Signal;HPM_P1;HPM_P2
2022/09/13 00:00:18;;;;;;;2.58;1.52;;;14.50;21.60;;;;;;5074543;28;34971;-79
2022/09/13 00:02:44;;;;;;;2.75;1.50;;;14.50;21.70;;;;;;5050260;28;34263;-80
2022/09/13 00:05:10;;;;;;;3.20;1.40;;;14.50;21.70;;;;;;5067140;28;34099;-79
2022/09/13 00:07:36;;;;;;;4.70;1.77;;;14.50;21.80;;;;;;5050000;28;34213;-80
2022/09/13 00:10:02;;;;;;;3.00;1.73;;;14.50;21.90;;;;;;5043695;28;35644;-81
2022/09/13 00:12:28;;;;;;;2.45;1.67;;;14.50;22.60;;;;;;5070767;28;34408;-80
2022/09/13 00:14:54;;;;;;;4.60;1.60;;;14.50;22.30;;;;;;5071044;28;34227;-81
2022/09/13 00:17:21;;;;;;;2.25;1.60;;;14.50;21.90;;;;;;5053410;28;34251;-80
2022/09/13 00:19:47;;;;;;;1.67;1.58;;;14.50;22.30;;;;;;5070979;28;35983;-80
2022/09/13 00:22:13;;;;;;;1.92;1.80;;;14.50;22.30;;;;;;5068355;28;34522;-80
2022/09/13 00:24:39;;;;;;;5.40;1.45;;;14.50;22.30;;;;;;5088793;28;34005;-80
2022/09/13 00:27:05;;;;;;;3.25;1.50;;;14.40;22.20;;;;;;5037205;28;34198;-80
2022/09/13 00:29:31;;;;;;;3.83;1.65;;;14.40;22.30;;;;;;5034007;28;35587;-80
2022/09/13 00:31:57;;;;;;;2.33;1.70;;;14.40;22.00;;;;;;5035600;28;34252;-80
2022/09/13 00:34:23;;;;;;;3.38;1.77;;;14.40;22.10;;;;;;5052898;28;34388;-80
2022/09/13 00:36:49;;;;;;;1.73;1.60;;;14.40;21.90;;;;;;5052778;28;34085;-80
2022/09/13 00:39:14;;;;;;;2.47;1.40;;;14.40;22.20;;;;;;5035630;28;36609;-80
2022/09/13 00:41:40;;;;;;;1.95;1.52;;;14.30;23.10;;;;;;5070230;28;34105;-80
2022/09/13 00:44:42;;;;;;;4.78;1.88;;;14.40;22.60;;;;;;5068993;28;34031;-80
2022/09/13 00:47:07;;;;;;;2.95;1.75;;;14.40;24.10;;;;;;5057430;28;34263;-80
2022/09/13 00:49:38;;;;;;;3.22;2.03;;;14.40;22.50;;;;;;5068899;28;35664;-80
2022/09/13 00:52:09;;;;;;;3.10;1.85;;;14.40;22.30;;;;;;5069780;28;34126;-80
2022/09/13 00:54:42;;;;;;;1.90;1.60;;;14.40;22.70;;;;;;5087749;28;34473;-79
2022/09/13 00:57:10;;;;;;;2.78;1.52;;;14.40;22.70;;;;;;5087690;28;33727;-80
2022/09/13 00:59:42;;;;;;;3.05;1.60;;;14.40;22.30;;;;;;5066063;28;36537;-80
2022/09/13 01:02:09;;;;;;;2.97;1.80;;;14.40;23.00;;;;;;5092241;28;34116;-80
2022/09/13 01:04:36;;;;;;;1.80;1.45;;;14.50;22.00;;;;;;5037527;28;34367;-81
2022/09/13 01:07:06;;;;;;;5.53;1.85;;;14.50;22.40;;;;;;5078964;28;34367;-80
2022/09/13 01:09:36;;;;;;;3.15;1.70;;;14.50;22.50;;;;;;5059584;28;36405;-81
2022/09/13 01:12:20;;;;;;;2.22;1.60;;;14.50;21.70;;;;;;5054600;28;34210;-80
2022/09/13 01:14:48;;;;;;;3.85;2.00;;;14.50;22.50;;;;;;5056124;28;34035;-80
2022/09/13 01:17:14;;;;;;;2.28;1.60;;;14.50;22.60;;;;;;5069788;28;34025;-80
2022/09/13 01:19:41;;;;;;;2.22;1.75;;;14.50;22.70;;;;;;5065178;28;35709;-80
2022/09/13 01:22:38;;;;;;;5.53;1.67;;;14.50;22.40;;;;;;5053150;28;34102;-80
2022/09/13 01:25:35;;;;;;;3.58;1.70;;;14.50;24.30;;;;;;5075463;28;34074;-79
2022/09/13 01:28:17;;;;;;;2.17;1.77;;;14.50;23.70;;;;;;5069798;28;34100;-80
2022/09/13 01:30:56;;;;;;;2.38;1.60;;;14.50;23.30;;;;;;5054131;28;35861;-80
2022/09/13 01:34:03;;;;;;;7.90;1.70;;;14.50;23.00;;;;;;5066663;28;34523;-80
2022/09/13 01:36:58;;;;;;;4.22;1.73;;;14.50;24.20;;;;;;5062293;28;34095;-80
2022/09/13 01:39:59;;;;;;;2.63;1.63;;;14.50;23.80;;;;;;5086472;28;34198;-80
2022/09/13 01:42:47;;;;;;;2.97;1.63;;;14.50;23.80;;;;;;5049061;28;35886;-80
2022/09/13 01:45:35;;;;;;;1.98;1.77;;;14.50;24.00;;;;;;5067919;28;34041;-80
2022/09/13 01:48:23;;;;;;;3.28;1.75;;;14.40;23.40;;;;;;5048195;28;34224;-80
2022/09/13 01:51:05;;;;;;;4.78;1.80;;;14.40;24.20;;;;;;5050700;28;34334;-80
2022/09/13 01:53:42;;;;;;;2.40;2.05;;;14.40;24.10;;;;;;5049867;28;35522;-80
2022/09/13 01:56:19;;;;;;;4.22;1.60;;;14.40;23.00;;;;;;5032498;28;34211;-80
2022/09/13 01:58:54;;;;;;;1.50;1.40;;;14.30;23.30;;;;;;5049097;28;34185;-81
2022/09/13 02:01:29;;;;;;;1.70;1.60;;;14.30;23.40;;;;;;5048902;28;34067;-80
2022/09/13 02:04:03;;;;;;;2.83;1.50;;;14.30;23.30;;;;;;5042375;28;35820;-81
2022/09/13 02:06:37;;;;;;;3.08;1.88;;;14.30;23.60;;;;;;5065922;28;34229;-81
2022/09/13 02:09:10;;;;;;;2.05;1.50;;;14.30;23.80;;;;;;5070652;28;34240;-81
2022/09/13 02:11:39;;;;;;;3.20;1.70;;;14.30;23.10;;;;;;5051704;28;34202;-80
2022/09/13 02:14:12;;;;;;;3.50;1.60;;;14.30;23.20;;;;;;5034288;28;36414;-80
2022/09/13 02:16:53;;;;;;;2.40;1.67;;;14.30;23.60;;;;;;5034063;28;34198;-80
2022/09/13 02:19:32;;;;;;;3.30;1.65;;;14.30;24.00;;;;;;5051309;28;34146;-80
2022/09/13 02:22:09;;;;;;;3.17;1.98;;;14.30;23.90;;;;;;5065040;28;34429;-80
2022/09/13 02:24:41;;;;;;;5.70;1.60;;;14.30;24.20;;;;;;5052399;28;34435;-80
2022/09/13 02:27:14;;;;;;;3.30;1.80;;;14.30;23.80;;;;;;5065944;28;34075;-80
2022/09/13 02:29:44;;;;;;;8.23;2.20;;;14.30;23.50;;;;;;5068019;28;34083;-80
2022/09/13 02:32:21;;;;;;;2.78;1.67;;;14.40;23.50;;;;;;5051636;28;34321;-80
2022/09/13 02:34:54;;;;;;;5.05;1.77;;;14.40;24.40;;;;;;5069763;28;34435;-79
2022/09/13 02:37:24;;;;;;;2.30;1.70;;;14.40;24.10;;;;;;5069559;28;34165;-80
2022/09/13 02:39:58;;;;;;;4.13;1.73;;;14.40;23.70;;;;;;5034142;28;34442;-80
2022/09/13 02:42:35;;;;;;;5.00;2.05;;;14.40;23.60;;;;;;5008598;28;34084;-80
2022/09/13 02:45:04;;;;;;;3.92;1.83;;;14.40;23.90;;;;;;5031847;28;35924;-80
2022/09/13 02:47:53;;;;;;;2.95;1.60;;;14.40;24.10;;;;;;5022930;28;34150;-80
2022/09/13 02:50:45;;;;;;;3.67;1.70;;;14.50;24.20;;;;;;5054662;28;34173;-80
2022/09/13 02:53:26;;;;;;;2.28;1.80;;;14.50;24.80;;;;;;5049604;28;34114;-80
2022/09/13 02:56:09;;;;;;;1.98;1.60;;;14.50;24.50;;;;;;5033293;28;36532;-80
2022/09/13 02:58:49;;;;;;;3.95;1.52;;;14.50;24.80;;;;;;5050757;28;34115;-80
2022/09/13 03:01:15;;;;;;;5.80;1.75;;;14.50;24.40;;;;;;5081163;28;34511;-80
2022/09/13 03:03:43;;;;;;;3.88;1.90;;;14.50;23.80;;;;;;5054618;28;34315;-80
2022/09/13 03:06:09;;;;;;;4.63;1.98;;;14.50;24.00;;;;;;5072342;28;35623;-79
2022/09/13 03:08:36;;;;;;;2.08;1.88;;;14.50;23.90;;;;;;5090067;28;33997;-79
2022/09/13 03:11:40;;;;;;;1.90;1.70;;;14.50;24.30;;;;;;5072037;28;34117;-80
2022/09/13 03:14:27;;;;;;;5.78;1.88;;;14.60;25.50;;;;;;5043237;28;34172;-80
2022/09/13 03:17:13;;;;;;;4.22;2.00;;;14.60;24.40;;;;;;5089662;28;35354;-80
2022/09/13 03:20:07;;;;;;;3.53;1.90;;;14.60;24.80;;;;;;5055004;28;34366;-80
2022/09/13 03:22:54;;;;;;;3.85;1.88;;;14.60;24.30;;;;;;5052387;28;34156;-81
2022/09/13 03:25:42;;;;;;;3.47;1.92;;;14.60;24.80;;;;;;5052239;28;34119;-82
2022/09/13 03:28:32;;;;;;;5.20;2.60;;;14.60;25.40;;;;;;5052841;28;35673;-80
2022/09/13 03:31:09;;;;;;;2.15;1.95;;;14.60;24.70;;;;;;5045729;28;34723;-81
2022/09/13 03:33:56;;;;;;;4.32;1.98;;;14.70;24.60;;;;;;5069609;28;34274;-80
2022/09/13 03:36:43;;;;;;;4.38;1.98;;;14.70;25.40;;;;;;5052086;28;34579;-80
2022/09/13 03:39:22;;;;;;;1.83;1.58;;;14.70;25.60;;;;;;5070918;28;36876;-80
2022/09/13 03:41:55;;;;;;;3.50;1.70;;;14.80;24.70;;;;;;5070212;28;34065;-80
2022/09/13 03:44:23;;;;;;;4.95;1.88;;;14.70;24.60;;;;;;5072399;28;34139;-80
2022/09/13 03:46:53;;;;;;;3.50;1.77;;;14.80;24.50;;;;;;5089994;28;34126;-80
2022/09/13 03:49:22;;;;;;;4.40;2.00;;;14.70;24.00;;;;;;5071027;28;36661;-81
2022/09/13 03:51:50;;;;;;;2.80;2.00;;;14.70;24.50;;;;;;5053242;28;34200;-80
2022/09/13 03:54:21;;;;;;;2.00;1.70;;;14.70;24.40;;;;;;5035202;28;34101;-80
2022/09/13 03:57:07;;;;;;;2.00;1.80;;;14.70;24.30;;;;;;5050843;28;34150;-81
2022/09/13 03:59:35;;;;;;;2.08;1.70;;;14.80;25.10;;;;;;5053869;28;36364;-81
2022/09/13 04:02:03;;;;;;;5.13;2.00;;;14.80;24.40;;;;;;5070407;28;34216;-80
2022/09/13 04:04:29;;;;;;;1.80;1.67;;;14.80;24.20;;;;;;5025462;28;34103;-80
2022/09/13 04:06:55;;;;;;;1.95;1.80;;;14.90;24.40;;;;;;5067675;28;34090;-80
2022/09/13 04:09:22;;;;;;;3.88;1.92;;;14.90;24.50;;;;;;5062877;28;34967;-80
2022/09/13 04:11:48;;;;;;;2.67;1.60;;;14.90;24.50;;;;;;5036979;28;34228;-80
2022/09/13 04:14:15;;;;;;;3.22;1.58;;;14.90;24.30;;;;;;5051089;28;34105;-80
2022/09/13 04:16:41;;;;;;;4.05;1.60;;;14.90;24.50;;;;;;5036712;28;34204;-80
2022/09/13 04:19:07;;;;;;;4.05;1.50;;;14.90;24.60;;;;;;5036342;28;36539;-80
2022/09/13 04:21:33;;;;;;;3.60;1.40;;;14.90;24.40;;;;;;5069780;28;34306;-80
2022/09/13 04:23:59;;;;;;;1.60;1.50;;;14.90;24.30;;;;;;5070718;28;34121;-80
2022/09/13 04:26:25;;;;;;;2.35;1.90;;;15.00;24.60;;;;;;5071167;28;34259;-80
2022/09/13 04:28:53;;;;;;;5.30;1.60;;;15.00;24.40;;;;;;5021491;28;35951;-80
2022/09/13 04:31:19;;;;;;;3.20;1.80;;;14.90;24.60;;;;;;5034964;28;34150;-80
2022/09/13 04:33:44;;;;;;;2.58;1.50;;;15.00;24.60;;;;;;5070095;28;34150;-80
2022/09/13 04:36:10;;;;;;;2.78;1.50;;;15.00;24.20;;;;;;5021422;28;34196;-80
2022/09/13 04:38:36;;;;;;;3.35;1.90;;;15.00;24.30;;;;;;5069902;28;35575;-80
2022/09/13 04:41:02;;;;;;;3.20;1.70;;;15.00;24.80;;;;;;5069285;28;34033;-80
2022/09/13 04:43:28;;;;;;;3.13;1.55;;;15.00;24.70;;;;;;5070238;28;34176;-80
2022/09/13 04:45:59;;;;;;;1.60;1.50;;;15.00;24.50;;;;;;5054319;28;34056;-80
2022/09/13 04:48:25;;;;;;;1.50;1.40;;;15.00;24.50;;;;;;5070633;28;36330;-80
2022/09/13 04:50:52;;;;;;;5.85;1.85;;;15.10;24.50;;;;;;5057212;28;34393;-80
2022/09/13 04:53:18;;;;;;;1.88;1.67;;;15.10;24.70;;;;;;5049756;28;33989;-80
2022/09/13 04:55:44;;;;;;;1.73;1.63;;;15.10;24.90;;;;;;5050851;28;34521;-80
2022/09/13 04:58:10;;;;;;;2.22;1.80;;;15.10;24.80;;;;;;5082806;28;34869;-80
2022/09/13 05:00:36;;;;;;;3.35;1.77;;;15.10;24.30;;;;;;5053741;28;34043;-80
2022/09/13 05:03:02;;;;;;;3.05;2.00;;;15.10;23.90;;;;;;5055535;28;34339;-80
2022/09/13 05:05:29;;;;;;;2.45;1.80;;;15.10;23.90;;;;;;5068549;28;34134;-79
2022/09/13 05:07:55;;;;;;;2.55;1.67;;;15.10;24.20;;;;;;5086675;28;35702;-80
2022/09/13 05:10:21;;;;;;;6.00;1.92;;;15.10;24.00;;;;;;5065978;28;34326;-80
2022/09/13 05:12:47;;;;;;;3.22;1.80;;;15.10;24.00;;;;;;5048075;28;34242;-80
2022/09/13 05:15:13;;;;;;;3.80;2.17;;;15.10;24.60;;;;;;5048555;28;34522;-80
2022/09/13 05:17:39;;;;;;;2.70;1.90;;;15.20;24.70;;;;;;5013443;28;36360;-80
2022/09/13 05:20:06;;;;;;;4.47;1.75;;;15.20;24.90;;;;;;5048508;28;34194;-80
2022/09/13 05:22:32;;;;;;;2.90;1.90;;;15.20;24.80;;;;;;5058878;28;34338;-81
2022/09/13 05:24:58;;;;;;;3.78;2.10;;;15.20;25.40;;;;;;5049305;28;34092;-79
2022/09/13 05:27:23;;;;;;;1.90;1.80;;;15.20;25.30;;;;;;5033058;28;35666;-80
2022/09/13 05:29:49;;;;;;;2.53;1.73;;;15.20;25.20;;;;;;5026372;28;34304;-80
2022/09/13 05:32:15;;;;;;;2.95;1.83;;;15.20;25.40;;;;;;5083109;28;34325;-79
2022/09/13 05:34:41;;;;;;;6.68;1.70;;;15.20;25.60;;;;;;5088309;28;34172;-79
2022/09/13 05:37:07;;;;;;;2.63;2.03;;;15.20;25.70;;;;;;5080723;28;34342;-80
2022/09/13 05:39:33;;;;;;;2.72;2.20;;;15.20;25.10;;;;;;5058799;28;34123;-80
2022/09/13 05:41:59;;;;;;;1.98;1.83;;;15.30;25.50;;;;;;5068273;28;33705;-80
2022/09/13 05:44:25;;;;;;;4.57;2.20;;;15.30;25.40;;;;;;5048381;28;34224;-80
2022/09/13 05:46:51;;;;;;;2.90;1.42;;;15.30;25.00;;;;;;5067696;28;36438;-80
2022/09/13 05:49:17;;;;;;;2.10;1.90;;;15.30;24.40;;;;;;5066119;28;34124;-80
2022/09/13 05:51:43;;;;;;;2.80;1.75;;;15.40;24.80;;;;;;5075462;28;34191;-80
2022/09/13 05:54:11;;;;;;;2.95;1.90;;;15.40;24.50;;;;;;5049063;28;34431;-80
2022/09/13 05:56:37;;;;;;;2.00;1.83;;;15.40;24.70;;;;;;5040983;28;35701;-79
2022/09/13 05:59:03;;;;;;;4.30;2.10;;;15.40;25.20;;;;;;5050001;28;34168;-80
2022/09/13 06:01:29;;;;;;;5.32;2.00;;;15.40;25.40;;;;;;5060197;28;34163;-80
2022/09/13 06:03:58;;;;;;;3.88;2.47;;;15.40;25.90;;;;;;5072153;28;34446;-80
2022/09/13 06:06:24;;;;;;;4.03;1.92;;;15.50;25.50;;;;;;5069074;28;36536;-79
2022/09/13 06:08:53;;;;;;;2.10;1.90;;;15.50;25.70;;;;;;5066666;28;34605;-79
2022/09/13 06:11:19;;;;;;;4.22;2.38;;;15.50;25.40;;;;;;5042512;28;34187;-79
2022/09/13 06:13:45;;;;;;;3.67;2.10;;;15.60;25.70;;;;;;5045125;28;34390;-79
2022/09/13 06:16:13;;;;;;;11.93;2.00;;;15.60;25.10;;;;;;5047058;28;35754;-79
2022/09/13 06:18:41;;;;;;;3.03;2.05;;;15.60;25.50;;;;;;5060439;28;34392;-79
2022/09/13 06:21:16;;;;;;;3.53;2.17;;;15.70;25.80;;;;;;5085809;28;34266;-79
2022/09/13 06:23:43;;;;;;;5.03;2.50;;;15.70;24.90;;;;;;5059037;28;34358;-79
2022/09/13 06:26:11;;;;;;;2.20;1.90;;;15.70;25.70;;;;;;5075077;28;35714;-78
2022/09/13 06:28:38;;;;;;;3.65;2.30;;;15.80;25.00;;;;;;5073046;28;36539;-79
2022/09/13 06:31:09;;;;;;;4.40;2.15;;;15.80;25.30;;;;;;5061314;28;34273;-78
2022/09/13 06:33:37;;;;;;;2.35;2.08;;;15.80;25.10;;;;;;5085609;28;34274;-78
2022/09/13 06:36:06;;;;;;;4.63;2.30;;;15.90;25.60;;;;;;5080365;28;34350;-78
2022/09/13 06:38:32;;;;;;;5.68;2.20;;;15.90;25.60;;;;;;5061781;28;34295;-78
2022/09/13 06:41:00;;;;;;;2.88;2.50;;;16.00;25.00;;;;;;5060987;28;34352;-78
2022/09/13 06:43:26;;;;;;;3.83;2.40;;;16.10;25.30;;;;;;5067666;28;34876;-78
2022/09/13 06:45:52;;;;;;;5.78;2.00;;;16.10;24.80;;;;;;5061524;28;36256;-78
2022/09/13 06:48:19;;;;;;;3.53;2.10;;;16.20;24.70;;;;;;5088580;28;34293;-79
2022/09/13 06:50:45;;;;;;;2.28;1.98;;;16.30;24.50;;;;;;5066124;28;34378;-79
2022/09/13 06:53:11;;;;;;;2.10;1.85;;;16.30;25.00;;;;;;5035655;28;34145;-80
2022/09/13 06:55:37;;;;;;;3.25;2.55;;;16.40;25.00;;;;;;5097676;28;34122;-79
2022/09/13 06:58:03;;;;;;;4.97;2.42;;;16.50;25.00;;;;;;5091225;28;33820;-79
2022/09/13 07:00:29;;;;;;;3.63;2.15;;;16.60;25.10;;;;;;5071840;28;34224;-79
2022/09/13 07:02:55;;;;;;;3.63;1.92;;;16.70;25.20;;;;;;5070758;28;34520;-79
2022/09/13 07:05:21;;;;;;;3.78;2.28;;;16.80;24.90;;;;;;5019955;28;35606;-80
2022/09/13 07:07:47;;;;;;;2.35;1.92;;;16.80;25.20;;;;;;5019171;28;34094;-79
2022/09/13 07:10:13;;;;;;;3.80;2.08;;;16.90;25.10;;;;;;5047102;28;34365;-79
2022/09/13 07:12:41;;;;;;;2.15;1.85;;;17.00;24.50;;;;;;5074402;28;34660;-79
2022/09/13 07:15:07;;;;;;;2.28;1.83;;;17.10;24.70;;;;;;5072374;28;36812;-80
2022/09/13 07:17:33;;;;;;;3.42;2.47;;;17.20;24.80;;;;;;5055722;28;34218;-80
2022/09/13 07:19:59;;;;;;;7.63;2.13;;;17.40;24.60;;;;;;5069971;28;34022;-79
2022/09/13 07:22:26;;;;;;;2.42;1.80;;;17.40;25.20;;;;;;5036850;28;34082;-80
2022/09/13 07:24:53;;;;;;;4.55;1.92;;;17.50;24.60;;;;;;5052714;28;36706;-79
2022/09/13 07:27:19;;;;;;;2.05;1.80;;;17.60;23.60;;;;;;5052468;28;34289;-79
2022/09/13 07:29:45;;;;;;;3.22;2.05;;;17.70;24.50;;;;;;5071864;28;34208;-80
2022/09/13 07:32:11;;;;;;;2.53;1.95;;;17.70;24.00;;;;;;5083530;28;34651;-80
2022/09/13 07:34:37;;;;;;;3.35;2.33;;;17.70;23.90;;;;;;5091846;28;34132;-80
2022/09/13 07:37:03;;;;;;;4.90;2.30;;;17.70;25.30;;;;;;5073155;28;34120;-80
2022/09/13 07:39:29;;;;;;;4.65;2.58;;;17.80;25.40;;;;;;5066906;28;34141;-80
2022/09/13 07:41:55;;;;;;;3.90;2.40;;;17.80;24.40;;;;;;5090831;28;34147;-80
2022/09/13 07:44:21;;;;;;;5.32;2.17;;;17.80;24.40;;;;;;5053562;28;35540;-79
2022/09/13 07:46:47;;;;;;;3.35;1.77;;;17.90;25.60;;;;;;5071229;28;34069;-80
2022/09/13 07:49:16;;;;;;;6.30;2.30;;;18.00;24.30;;;;;;5070015;28;34366;-80
2022/09/13 07:51:43;;;;;;;3.67;1.75;;;18.10;23.70;;;;;;5053640;28;34420;-80
2022/09/13 07:54:12;;;;;;;5.60;2.40;;;18.20;24.20;;;;;;5052765;28;35949;-79
2022/09/13 07:56:40;;;;;;;3.63;2.08;;;18.30;23.20;;;;;;5070185;28;34243;-79
2022/09/13 07:59:11;;;;;;;2.25;1.73;;;18.30;24.70;;;;;;5069188;28;34273;-79
2022/09/13 08:01:41;;;;;;;3.45;1.75;;;18.30;24.20;;;;;;5064226;28;34302;-80
2022/09/13 08:04:11;;;;;;;3.00;2.05;;;18.40;23.90;;;;;;5086643;28;34427;-79
2022/09/13 08:06:38;;;;;;;4.38;1.90;;;18.40;23.10;;;;;;5052214;28;34284;-79
2022/09/13 08:09:07;;;;;;;3.60;2.35;;;18.50;23.70;;;;;;5031493;28;34115;-80
2022/09/13 08:11:36;;;;;;;3.13;2.08;;;18.50;23.70;;;;;;5064246;28;34608;-80
2022/09/13 08:14:04;;;;;;;2.55;2.00;;;18.50;23.20;;;;;;5055619;28;35837;-79
2022/09/13 08:16:31;;;;;;;2.03;1.92;;;18.50;23.90;;;;;;5068301;28;34328;-79
2022/09/13 08:18:59;;;;;;;2.58;2.00;;;18.50;23.70;;;;;;5068854;28;34319;-79
2022/09/13 08:21:30;;;;;;;3.90;2.17;;;18.50;24.70;;;;;;5062341;28;35178;-79
2022/09/13 08:23:59;;;;;;;2.15;1.95;;;18.50;23.70;;;;;;5056115;28;36329;-79
2022/09/13 08:26:26;;;;;;;2.70;2.10;;;18.50;23.30;;;;;;5059379;28;34132;-79
2022/09/13 08:29:02;;;;;;;5.93;1.83;;;18.50;23.50;;;;;;5065916;28;34309;-79
2022/09/13 08:31:29;;;;;;;7.22;2.30;;;18.50;24.30;;;;;;5059634;28;34149;-79
2022/09/13 08:33:56;;;;;;;3.50;2.10;;;18.50;24.60;;;;;;5068126;28;36357;-79
2022/09/13 08:36:23;;;;;;;12.23;2.30;;;18.60;23.80;;;;;;5068100;28;34115;-79
2022/09/13 08:38:52;;;;;;;2.03;1.83;;;18.60;23.50;;;;;;5051524;28;34320;-79
2022/09/13 08:41:30;;;;;;;2.40;2.10;;;18.60;23.90;;;;;;5051109;28;33867;-79
2022/09/13 08:44:05;;;;;;;3.00;1.85;;;18.60;24.10;;;;;;5068362;28;35918;-80
2022/09/13 08:46:36;;;;;;;2.00;1.90;;;18.60;25.20;;;;;;5068636;28;34339;-79
2022/09/13 08:49:10;;;;;;;2.00;1.80;;;18.60;23.50;;;;;;5068245;28;34222;-79
2022/09/13 08:51:46;;;;;;;2.72;2.15;;;18.60;25.10;;;;;;5035286;28;34477;-79
2022/09/13 08:54:15;;;;;;;6.07;2.15;;;18.60;24.50;;;;;;5067914;28;36562;-78
2022/09/13 08:57:01;;;;;;;3.45;2.00;;;18.60;24.80;;;;;;5083525;28;34489;-79
2022/09/13 08:59:50;;;;;;;2.40;2.20;;;18.60;24.60;;;;;;5064105;28;34240;-77
2022/09/13 09:02:42;;;;;;;3.22;2.13;;;18.60;24.70;;;;;;5042193;28;34123;-78
2022/09/13 09:05:27;;;;;;;4.28;2.20;;;18.70;24.80;;;;;;5047085;28;36597;-77
2022/09/13 09:07:59;;;;;;;6.80;2.50;;;18.60;26.80;;;;;;5068456;28;34214;-78
2022/09/13 09:10:31;;;;;;;8.90;2.42;;;18.70;24.40;;;;;;5056217;28;34197;-81
2022/09/13 09:13:13;;;;;;;5.35;2.35;;;18.70;24.60;;;;;;5063318;28;34100;-79
2022/09/13 09:15:44;;;;;;;3.92;2.30;;;18.70;24.30;;;;;;5051041;28;36379;-79
2022/09/13 09:18:17;;;;;;;3.22;2.42;;;18.70;24.20;;;;;;5053217;28;34313;-80
2022/09/13 09:20:46;;;;;;;2.40;2.20;;;18.60;25.50;;;;;;5056604;28;34153;-79
2022/09/13 09:23:18;;;;;;;4.32;2.38;;;18.60;25.90;;;;;;5074498;28;34426;-79
2022/09/13 09:25:55;;;;;;;4.35;2.03;;;18.50;25.40;;;;;;5034970;28;34383;-79
2022/09/13 09:28:21;;;;;;;3.45;2.03;;;18.50;25.70;;;;;;5024453;28;34213;-79
2022/09/13 09:31:06;;;;;;;8.55;2.53;;;18.60;25.80;;;;;;5074190;28;34136;-79
2022/09/13 09:34:02;;;;;;;3.10;2.38;;;18.60;27.00;;;;;;5057347;28;33892;-79
2022/09/13 09:36:39;;;;;;;2.30;2.10;;;18.60;25.90;;;;;;5060111;28;35332;-79
2022/09/13 09:39:11;;;;;;;3.80;2.30;;;18.60;26.40;;;;;;5041025;28;34176;-79
2022/09/13 09:41:37;;;;;;;3.75;2.65;;;18.60;25.70;;;;;;5040429;28;34366;-79
2022/09/13 09:44:21;;;;;;;4.50;2.65;;;18.70;25.90;;;;;;5071212;28;34514;-80
2022/09/13 09:46:54;;;;;;;2.78;2.45;;;18.70;26.40;;;;;;5037581;28;35692;-80
2022/09/13 09:52:18;;;;;;;2.85;2.42;;;18.70;25.70;;;;;;5084799;28;34191;-80
2022/09/13 09:54:45;;;;;;;3.40;2.67;;;18.80;25.70;;;;;;5035408;28;34690;-80
2022/09/13 09:57:12;;;;;;;3.88;2.40;;;18.80;25.20;;;;;;5041421;28;35691;-80
2022/09/13 09:59:38;;;;;;;3.65;2.55;;;18.80;25.70;;;;;;5062795;28;34432;-80
2022/09/13 10:02:21;;;;;;;2.97;2.33;;;18.90;25.00;;;;;;5069750;28;34172;-79
2022/09/13 10:04:57;;;;;;;7.05;2.88;;;19.00;26.40;;;;;;5068780;28;34403;-80
2022/09/13 10:07:33;;;;;;;3.67;2.55;;;19.00;26.20;;;;;;5058933;28;35676;-80
2022/09/13 10:10:05;;;;;;;3.28;2.53;;;19.10;26.00;;;;;;5071447;28;34092;-81
2022/09/13 10:12:35;;;;;;;5.57;2.40;;;19.10;25.40;;;;;;5050034;28;33746;-80
2022/09/13 10:15:06;;;;;;;6.10;2.83;;;19.20;25.40;;;;;;5065650;28;34059;-79
2022/09/13 10:17:32;;;;;;;3.38;2.80;;;19.30;25.40;;;;;;5075908;28;34115;-78
2022/09/13 10:20:03;;;;;;;3.70;2.78;;;19.30;25.40;;;;;;5072514;28;34240;-79
2022/09/13 10:22:30;;;;;;;4.78;2.30;;;19.40;25.10;;;;;;5059556;28;34334;-79
2022/09/13 10:25:13;;;;;;;3.20;2.60;;;19.50;25.10;;;;;;5073304;28;34395;-79
2022/09/13 10:27:41;;;;;;;3.10;2.80;;;19.60;26.40;;;;;;5066993;28;35869;-79
2022/09/13 10:30:31;;;;;;;6.55;2.70;;;19.70;24.80;;;;;;5090796;28;34061;-79
2022/09/13 10:32:58;;;;;;;3.92;2.70;;;19.80;26.80;;;;;;5065426;28;34440;-78
2022/09/13 10:35:24;;;;;;;3.80;2.85;;;20.00;25.10;;;;;;5084556;28;34443;-78
2022/09/13 10:37:51;;;;;;;5.13;2.75;;;20.10;25.00;;;;;;5068211;28;35729;-78
2022/09/13 10:40:32;;;;;;;3.97;3.00;;;20.20;23.70;;;;;;5068524;28;34048;-79
2022/09/13 10:43:02;;;;;;;6.30;2.78;;;20.30;24.80;;;;;;5055953;28;34285;-79
2022/09/13 10:45:30;;;;;;;4.40;3.05;;;20.40;24.50;;;;;;5071843;28;34226;-79
2022/09/13 10:48:14;;;;;;;3.08;2.70;;;20.60;23.70;;;;;;5091064;28;34762;-79
2022/09/13 10:50:40;;;;;;;2.65;2.40;;;20.80;23.40;;;;;;5069017;28;34217;-79
2022/09/13 10:53:31;;;;;;;8.32;3.10;;;21.00;23.60;;;;;;5089488;28;34206;-80
2022/09/13 10:55:57;;;;;;;7.60;2.70;;;21.20;23.20;;;;;;5077825;28;34114;-79
2022/09/13 10:58:23;;;;;;;5.65;2.65;;;21.30;22.60;;;;;;5072439;28;35518;-79
2022/09/13 11:01:13;;;;;;;4.97;3.38;;;21.50;22.20;;;;;;5074089;28;34096;-79
2022/09/13 11:04:14;;;;;;;4.20;3.25;;;21.80;22.40;;;;;;5072037;28;34406;-79
2022/09/13 11:06:53;;;;;;;3.95;2.58;;;22.10;24.30;;;;;;5055541;28;34451;-79
2022/09/13 11:09:43;;;;;;;3.65;2.72;;;22.30;22.20;;;;;;5063160;28;35527;-78
2022/09/13 11:12:21;;;;;;;3.40;2.72;;;22.50;20.50;;;;;;5073697;28;34243;-79
2022/09/13 11:15:06;;;;;;;5.15;3.17;;;22.50;21.10;;;;;;5059397;28;34146;-80
2022/09/13 11:17:57;;;;;;;3.13;2.72;;;22.60;21.20;;;;;;5070971;28;34224;-78
2022/09/13 11:20:37;;;;;;;4.22;2.50;;;22.80;20.10;;;;;;5064597;28;35528;-79
2022/09/13 11:23:24;;;;;;;2.80;2.50;;;23.00;20.60;;;;;;5071982;28;34125;-78
2022/09/13 11:26:19;;;;;;;2.55;2.35;;;23.10;19.60;;;;;;5056898;28;34241;-79
2022/09/13 11:29:02;;;;;;;3.33;2.75;;;23.20;20.20;;;;;;5070962;28;34216;-77
2022/09/13 11:32:03;;;;;;;5.35;2.80;;;23.30;20.20;;;;;;5064826;28;35654;-79
2022/09/13 11:34:48;;;;;;;3.03;2.53;;;23.40;21.30;;;;;;5051493;28;34143;-78
2022/09/13 11:37:36;;;;;;;3.33;2.40;;;23.40;20.00;;;;;;5051718;28;34229;-79
2022/09/13 11:40:28;;;;;;;2.75;2.38;;;23.30;19.40;;;;;;5065469;28;34342;-79
2022/09/13 11:43:13;;;;;;;3.72;2.70;;;23.30;20.20;;;;;;5056039;28;36574;-79
2022/09/13 11:45:57;;;;;;;2.95;2.65;;;23.30;19.70;;;;;;5054591;28;34155;-78
2022/09/13 11:48:53;;;;;;;3.08;2.17;;;23.40;20.20;;;;;;5037002;28;34065;-79
2022/09/13 11:51:45;;;;;;;2.50;2.30;;;23.30;20.00;;;;;;5070994;28;34126;-78
2022/09/13 11:54:34;;;;;;;2.88;2.58;;;23.40;20.00;;;;;;5070627;28;36571;-78
2022/09/13 11:57:10;;;;;;;2.70;2.35;;;23.40;20.00;;;;;;5063990;28;34183;-79
2022/09/13 11:59:45;;;;;;;3.05;2.78;;;23.50;20.40;;;;;;5068357;28;34213;-79
2022/09/13 12:02:32;;;;;;;2.70;2.50;;;23.50;20.30;;;;;;5052323;28;34181;-79
2022/09/13 12:05:21;;;;;;;5.57;3.30;;;23.50;20.00;;;;;;5082094;28;35492;-78
2022/09/13 12:07:56;;;;;;;3.75;2.72;;;23.50;20.50;;;;;;5065889;28;34088;-78
2022/09/13 12:10:29;;;;;;;7.30;2.67;;;23.40;20.70;;;;;;5054688;28;34162;-78
2022/09/13 12:13:00;;;;;;;4.60;2.63;;;23.40;21.20;;;;;;5063802;28;34899;-77
2022/09/13 12:15:36;;;;;;;2.65;2.35;;;23.50;21.10;;;;;;5087411;28;34340;-77
2022/09/13 12:18:15;;;;;;;4.22;2.60;;;23.40;20.30;;;;;;5071176;28;34120;-78
2022/09/13 12:20:53;;;;;;;2.90;2.60;;;23.40;20.80;;;;;;5066284;28;34117;-78
2022/09/13 12:23:27;;;;;;;7.50;2.67;;;23.30;20.30;;;;;;5071202;28;34010;-78
2022/09/13 12:26:05;;;;;;;3.28;2.97;;;23.30;21.40;;;;;;5076889;28;37166;-78
2022/09/13 12:28:41;;;;;;;4.25;2.65;;;23.30;20.70;;;;;;5077145;28;34101;-78
2022/09/13 12:31:14;;;;;;;3.33;2.60;;;23.20;20.30;;;;;;5067702;28;34094;-78
2022/09/13 12:33:42;;;;;;;2.47;2.28;;;23.20;20.30;;;;;;5062192;28;34478;-78
2022/09/13 12:36:38;;;;;;;3.85;2.30;;;23.10;20.30;;;;;;5079552;28;34365;-77
2022/09/13 12:39:34;;;;;;;3.13;2.58;;;23.10;20.30;;;;;;5069686;28;34167;-78
2022/09/13 12:42:25;;;;;;;4.72;2.88;;;23.00;20.60;;;;;;5066318;28;34368;-77
2022/09/13 12:45:15;;;;;;;2.83;2.50;;;23.00;20.50;;;;;;5071013;28;34034;-77
2022/09/13 12:48:09;;;;;;;6.40;2.47;;;22.90;21.20;;;;;;5071965;28;36265;-77
2022/09/13 12:51:04;;;;;;;3.70;2.53;;;23.00;20.30;;;;;;5089337;28;34444;-77
2022/09/13 12:54:01;;;;;;;5.05;2.65;;;22.90;21.40;;;;;;5089825;28;34207;-77
2022/09/13 12:56:58;;;;;;;4.25;2.78;;;22.90;21.00;;;;;;5057934;28;34160;-77
2022/09/13 12:59:40;;;;;;;2.90;2.63;;;22.90;21.30;;;;;;5087982;28;34473;-78
2022/09/13 13:02:25;;;;;;;3.05;2.53;;;23.00;21.20;;;;;;5044450;28;34060;-77
2022/09/13 13:04:56;;;;;;;2.65;2.40;;;23.00;21.10;;;;;;5108876;28;33994;-77
2022/09/13 13:07:23;;;;;;;3.22;2.58;;;23.10;21.20;;;;;;5089955;28;34377;-77
2022/09/13 13:09:52;;;;;;;2.92;2.60;;;23.10;20.90;;;;;;5066308;28;35588;-78
2022/09/13 13:12:32;;;;;;;4.82;2.72;;;23.10;20.60;;;;;;5066133;28;34260;-77
2022/09/13 13:15:04;;;;;;;2.55;2.30;;;23.10;20.30;;;;;;5036263;28;34288;-78
2022/09/13 13:17:45;;;;;;;4.47;2.60;;;23.10;20.30;;;;;;5017198;28;34398;-77
2022/09/13 13:20:42;;;;;;;5.13;2.60;;;23.10;20.20;;;;;;5050446;28;35843;-78
2022/09/13 13:23:26;;;;;;;2.60;2.40;;;23.20;21.10;;;;;;5069474;28;34074;-77